Time;durP1;ratioP1;P1;durP2;ratioP2;P2;SDS_P1;SDS_P2;PMS_P1;PMS_P2;Temp;Humidity;BMP_temperature;BMP_pressure;BME280_temperature;BME280_humidity;BME280_pressure;Samples;Min_cycle;Max_cycle;Signal;HPM_P1;HPM_P2
2021/04/16 00:00:37;;;;;;;2.58;2.28;;;6.30;54.20;;;;;;5084188;28;20187;-78
2021/04/16 00:03:04;;;;;;;5.60;2.85;;;6.30;54.30;;;;;;5085758;28;20177;-78
2021/04/16 00:05:29;;;;;;;4.18;2.60;;;6.30;54.20;;;;;;5084463;28;20588;-78
2021/04/16 00:07:55;;;;;;;3.73;2.80;;;6.30;54.30;;;;;;5083359;28;20180;-77
2021/04/16 00:10:35;;;;;;;3.90;2.60;;;6.20;54.30;;;;;;5082366;28;20582;-78
2021/04/16 00:13:02;;;;;;;8.07;2.67;;;6.20;54.70;;;;;;5077845;28;20575;-78
2021/04/16 00:15:31;;;;;;;4.85;3.47;;;6.20;54.50;;;;;;5069209;28;20197;-77
2021/04/16 00:17:57;;;;;;;3.05;2.75;;;6.20;54.60;;;;;;5069167;28;20856;-77
2021/04/16 00:20:26;;;;;;;6.57;3.33;;;6.20;54.60;;;;;;5066905;28;20169;-78
2021/04/16 00:22:51;;;;;;;5.78;2.55;;;6.20;54.70;;;;;;5065459;28;20592;-77
2021/04/16 00:25:20;;;;;;;3.33;2.43;;;6.20;54.70;;;;;;5069608;28;20181;-78
2021/04/16 00:27:46;;;;;;;6.53;2.70;;;6.10;54.70;;;;;;5029553;28;20563;-78
2021/04/16 00:30:13;;;;;;;4.80;3.50;;;6.10;54.80;;;;;;5045891;28;20173;-78
2021/04/16 00:32:39;;;;;;;3.40;3.10;;;6.10;54.90;;;;;;5065517;28;20579;-78
2021/04/16 00:35:07;;;;;;;5.13;3.10;;;6.10;55.10;;;;;;5068557;28;20265;-78
2021/04/16 00:37:33;;;;;;;5.57;2.83;;;6.10;55.20;;;;;;5050153;28;20173;-78
2021/04/16 00:39:58;;;;;;;4.67;2.67;;;6.10;55.20;;;;;;5049048;28;20256;-78
2021/04/16 00:42:24;;;;;;;2.87;2.57;;;6.10;55.30;;;;;;5067168;28;20563;-78
2021/04/16 00:44:50;;;;;;;2.53;2.30;;;6.10;55.40;;;;;;5048445;28;20607;-78
2021/04/16 00:47:21;;;;;;;3.00;2.70;;;6.10;55.60;;;;;;5049374;28;20575;-78
2021/04/16 00:49:52;;;;;;;3.67;2.35;;;6.10;55.70;;;;;;5048376;28;20173;-79
2021/04/16 00:52:29;;;;;;;3.42;3.13;;;6.20;55.90;;;;;;5059194;28;20177;-79
2021/04/16 00:54:55;;;;;;;4.82;2.97;;;6.20;56.00;;;;;;5066477;28;20215;-78
2021/04/16 00:57:22;;;;;;;4.25;3.85;;;6.20;55.90;;;;;;5067739;28;20192;-78
2021/04/16 00:59:52;;;;;;;2.75;2.00;;;6.20;55.90;;;;;;5073766;28;20595;-78
2021/04/16 01:02:17;;;;;;;2.90;2.35;;;6.20;56.10;;;;;;5064277;28;20169;-78
2021/04/16 01:04:43;;;;;;;3.03;2.37;;;6.30;56.20;;;;;;5067907;28;20185;-78
2021/04/16 01:07:10;;;;;;;3.00;2.70;;;6.20;56.10;;;;;;5065387;28;20183;-78
2021/04/16 01:09:36;;;;;;;3.70;2.53;;;6.20;56.20;;;;;;5042093;28;20514;-78
2021/04/16 01:12:06;;;;;;;4.88;2.70;;;6.20;56.20;;;;;;5026934;28;20255;-78
2021/04/16 01:14:33;;;;;;;3.35;2.30;;;6.20;56.40;;;;;;5062167;28;20283;-78
2021/04/16 01:17:00;;;;;;;5.32;2.90;;;6.20;56.30;;;;;;5082091;28;20164;-77
2021/04/16 01:19:56;;;;;;;4.07;3.15;;;6.20;56.40;;;;;;5064513;28;20305;-77
2021/04/16 01:22:47;;;;;;;2.63;2.42;;;6.20;56.80;;;;;;5083940;28;20213;-78
2021/04/16 01:25:13;;;;;;;5.93;2.28;;;6.20;56.90;;;;;;5085100;28;20209;-78
2021/04/16 01:27:39;;;;;;;3.60;2.90;;;6.20;56.50;;;;;;5086661;28;20155;-78
2021/04/16 01:30:14;;;;;;;3.60;3.13;;;6.10;56.60;;;;;;5088358;28;20169;-78
2021/04/16 01:32:40;;;;;;;5.25;3.35;;;6.10;56.90;;;;;;5079469;28;20247;-78
2021/04/16 01:35:12;;;;;;;4.97;3.23;;;6.10;56.70;;;;;;5079829;28;20204;-77
2021/04/16 01:37:37;;;;;;;3.08;2.25;;;6.10;57.00;;;;;;5081282;28;20199;-77
2021/04/16 01:40:09;;;;;;;3.50;2.70;;;6.10;57.00;;;;;;5084544;28;20171;-77
2021/04/16 01:42:35;;;;;;;3.63;3.20;;;6.00;57.20;;;;;;5067745;28;20662;-77
2021/04/16 01:45:01;;;;;;;7.28;3.50;;;6.00;57.20;;;;;;5080214;28;20200;-77
2021/04/16 01:47:26;;;;;;;5.37;2.90;;;6.00;57.40;;;;;;5081163;28;20183;-77
2021/04/16 01:49:52;;;;;;;3.03;2.57;;;6.00;57.50;;;;;;5083960;28;20600;-77
2021/04/16 01:52:25;;;;;;;4.50;2.88;;;6.00;57.60;;;;;;5083914;28;20184;-78
2021/04/16 01:54:51;;;;;;;2.78;2.25;;;6.00;57.80;;;;;;5066607;28;20219;-78
2021/04/16 01:57:24;;;;;;;3.95;3.38;;;6.00;57.80;;;;;;5069858;28;20180;-78
2021/04/16 01:59:52;;;;;;;7.18;3.78;;;6.00;58.00;;;;;;5085196;28;20175;-77
2021/04/16 02:02:28;;;;;;;4.70;3.55;;;6.00;58.00;;;;;;5083050;28;20174;-78
2021/04/16 02:04:54;;;;;;;5.03;3.25;;;6.00;58.50;;;;;;5066121;28;20695;-78
2021/04/16 02:07:23;;;;;;;4.13;2.95;;;6.00;58.20;;;;;;5081695;28;20169;-77
2021/04/16 02:09:48;;;;;;;4.00;3.50;;;6.00;58.40;;;;;;5078314;28;20699;-76
2021/04/16 02:12:16;;;;;;;5.80;3.50;;;6.00;58.30;;;;;;5077983;28;20203;-77
2021/04/16 02:14:42;;;;;;;5.05;3.22;;;6.00;58.50;;;;;;5062059;28;20236;-77
2021/04/16 02:17:12;;;;;;;3.80;2.90;;;6.10;58.70;;;;;;5047106;28;20174;-77
2021/04/16 02:19:38;;;;;;;4.10;2.70;;;6.10;58.70;;;;;;5059817;28;20586;-77
2021/04/16 02:22:06;;;;;;;5.13;2.80;;;6.10;58.60;;;;;;5059861;28;20173;-77
2021/04/16 02:24:32;;;;;;;4.60;3.33;;;6.10;58.80;;;;;;5057407;28;20212;-77
2021/04/16 02:26:58;;;;;;;3.83;3.15;;;6.10;59.10;;;;;;5039371;28;20240;-77
2021/04/16 02:29:24;;;;;;;4.60;3.15;;;6.20;59.20;;;;;;5042446;28;20175;-78
2021/04/16 02:31:51;;;;;;;3.85;3.30;;;6.20;59.10;;;;;;5057274;28;20161;-77
2021/04/16 02:34:19;;;;;;;4.40;2.72;;;6.20;59.20;;;;;;5055337;28;20188;-78
2021/04/16 02:36:46;;;;;;;3.35;2.97;;;6.30;59.40;;;;;;5054125;28;20726;-78
2021/04/16 02:39:12;;;;;;;4.55;3.03;;;6.30;59.40;;;;;;5063919;28;20196;-78
2021/04/16 02:41:38;;;;;;;3.70;2.63;;;6.40;59.60;;;;;;5064215;28;20180;-77
2021/04/16 02:44:05;;;;;;;2.83;2.47;;;6.40;59.50;;;;;;5063858;28;21143;-78
2021/04/16 02:46:34;;;;;;;2.83;2.38;;;6.50;59.50;;;;;;5061899;28;20576;-77
2021/04/16 02:49:00;;;;;;;2.95;2.67;;;6.50;59.70;;;;;;5042015;28;20165;-77
2021/04/16 02:51:27;;;;;;;3.38;2.65;;;6.50;59.60;;;;;;5041157;28;20180;-77
2021/04/16 02:53:53;;;;;;;3.28;2.65;;;6.60;59.60;;;;;;5056347;28;20193;-77
2021/04/16 02:56:19;;;;;;;2.40;2.20;;;6.60;59.70;;;;;;5054745;28;20642;-77
2021/04/16 02:58:45;;;;;;;3.83;2.77;;;6.60;59.80;;;;;;5054469;28;20192;-76
2021/04/16 03:01:11;;;;;;;3.33;2.70;;;6.70;60.10;;;;;;5054515;28;20983;-76
2021/04/16 03:03:42;;;;;;;3.83;3.03;;;6.70;60.30;;;;;;5077637;22;20668;-80
2021/04/16 03:06:19;;;;;;;4.70;3.15;;;6.80;60.70;;;;;;5109054;28;20568;-81
2021/04/16 03:09:02;;;;;;;4.10;3.00;;;6.80;60.70;;;;;;5106703;28;20167;-80
2021/04/16 03:11:59;;;;;;;3.38;2.72;;;6.80;61.40;;;;;;5111017;28;20183;-80
2021/04/16 03:15:00;;;;;;;2.83;2.30;;;6.90;61.00;;;;;;5072532;28;20215;-80
2021/04/16 03:17:34;;;;;;;5.95;2.90;;;6.90;60.80;;;;;;5070397;28;20184;-81
2021/04/16 03:20:12;;;;;;;2.75;2.40;;;7.00;60.90;;;;;;5054614;28;20160;-81
2021/04/16 03:22:41;;;;;;;3.35;2.90;;;7.00;61.10;;;;;;5054089;28;20278;-81
2021/04/16 03:25:21;;;;;;;2.97;2.67;;;7.10;61.30;;;;;;5071798;28;20199;-82
2021/04/16 03:28:04;;;;;;;4.72;2.30;;;7.10;61.40;;;;;;5070403;28;20171;-81
2021/04/16 03:30:36;;;;;;;3.78;2.35;;;7.10;61.50;;;;;;5070517;28;20176;-81
2021/04/16 03:33:12;;;;;;;5.28;3.10;;;7.20;61.40;;;;;;5068924;28;20287;-81
2021/04/16 03:36:01;;;;;;;3.55;2.35;;;7.20;61.70;;;;;;5071523;28;20265;-80
2021/04/16 03:38:50;;;;;;;3.63;2.92;;;7.20;62.40;;;;;;5073487;28;20160;-79
2021/04/16 03:41:31;;;;;;;4.35;3.20;;;7.30;62.00;;;;;;5070781;28;20167;-81
2021/04/16 03:44:34;;;;;;;3.40;2.90;;;7.30;62.60;;;;;;5070498;28;20753;-80
2021/04/16 03:47:20;;;;;;;2.50;2.15;;;7.30;63.20;;;;;;5072430;28;20176;-81
2021/04/16 03:49:58;;;;;;;3.35;3.00;;;7.40;62.50;;;;;;5091676;28;20176;-80
2021/04/16 03:52:35;;;;;;;3.47;3.05;;;7.40;62.50;;;;;;5090752;28;20195;-80
2021/04/16 03:55:08;;;;;;;3.80;3.13;;;7.50;63.00;;;;;;5090372;28;20577;-79
2021/04/16 03:57:41;;;;;;;2.80;2.20;;;7.50;63.30;;;;;;5090227;28;20186;-81
2021/04/16 04:00:51;;;;;;;4.45;2.90;;;7.60;63.30;;;;;;5090685;28;20167;-81
2021/04/16 04:03:45;;;;;;;2.90;2.60;;;7.60;64.10;;;;;;5089514;28;20213;-82
2021/04/16 04:06:15;;;;;;;2.63;2.42;;;7.60;63.90;;;;;;5090747;28;20564;-82
2021/04/16 04:08:57;;;;;;;7.78;3.00;;;7.60;64.40;;;;;;5073874;28;20182;-81
2021/04/16 04:11:45;;;;;;;4.35;3.72;;;7.60;64.70;;;;;;5090624;28;20171;-80
2021/04/16 04:14:17;;;;;;;4.32;3.67;;;7.70;65.10;;;;;;5075134;28;20202;-80
2021/04/16 04:16:59;;;;;;;3.88;3.33;;;7.60;64.90;;;;;;5053712;28;20200;-81
2021/04/16 04:19:30;;;;;;;3.50;3.20;;;7.60;65.40;;;;;;5070164;28;20186;-82
2021/04/16 04:22:06;;;;;;;5.50;3.28;;;7.60;65.40;;;;;;5071430;28;20164;-81
2021/04/16 04:24:45;;;;;;;4.93;2.95;;;7.60;65.90;;;;;;5071205;28;20271;-79
2021/04/16 04:27:26;;;;;;;4.28;3.88;;;7.60;66.10;;;;;;5070771;28;20164;-80
2021/04/16 04:30:18;;;;;;;4.57;3.67;;;7.60;66.20;;;;;;5071196;28;20168;-80
2021/04/16 04:33:02;;;;;;;4.53;2.90;;;7.60;66.50;;;;;;5070114;28;20675;-80
2021/04/16 04:35:38;;;;;;;3.72;2.83;;;7.60;67.10;;;;;;5071272;28;20231;-80
2021/04/16 04:38:47;;;;;;;8.88;4.00;;;7.60;66.80;;;;;;5070744;28;20165;-82
2021/04/16 04:41:23;;;;;;;4.32;3.17;;;7.60;67.30;;;;;;5053271;28;20589;-80
2021/04/16 04:44:16;;;;;;;4.35;2.72;;;7.60;67.30;;;;;;5072754;28;20733;-80
2021/04/16 04:46:47;;;;;;;4.95;3.60;;;7.60;68.30;;;;;;5075231;28;20200;-80
2021/04/16 04:49:16;;;;;;;4.28;3.88;;;7.60;67.50;;;;;;5087596;28;20190;-80
2021/04/16 04:51:42;;;;;;;4.18;3.53;;;7.50;67.60;;;;;;5093859;28;20162;-81
2021/04/16 04:54:16;;;;;;;4.10;3.08;;;7.50;67.80;;;;;;5094663;28;20244;-82
2021/04/16 04:56:55;;;;;;;3.90;3.50;;;7.50;68.20;;;;;;5080146;28;20271;-81
2021/04/16 04:59:23;;;;;;;5.40;2.80;;;7.50;68.40;;;;;;5094802;28;20169;-81
2021/04/16 05:01:49;;;;;;;3.80;2.80;;;7.50;68.40;;;;;;5074155;28;20233;-81
2021/04/16 05:04:18;;;;;;;3.00;2.80;;;7.50;68.40;;;;;;5075374;28;20633;-81
2021/04/16 05:06:52;;;;;;;3.63;2.40;;;7.50;69.60;;;;;;5089867;28;20250;-81
2021/04/16 05:09:20;;;;;;;3.97;3.10;;;7.50;68.90;;;;;;5089630;28;20181;-82
2021/04/16 05:11:51;;;;;;;3.05;2.75;;;7.40;69.30;;;;;;5087443;28;20175;-82
2021/04/16 05:14:20;;;;;;;5.85;3.58;;;7.40;69.60;;;;;;5089257;28;20278;-81
2021/04/16 05:16:49;;;;;;;4.38;3.88;;;7.40;70.20;;;;;;5092663;28;20543;-82
2021/04/16 05:19:15;;;;;;;4.65;3.20;;;7.50;70.40;;;;;;5093242;28;20240;-81
2021/04/16 05:21:49;;;;;;;6.40;5.18;;;7.50;70.70;;;;;;5076453;28;20178;-81
2021/04/16 05:24:23;;;;;;;4.38;3.15;;;7.50;71.10;;;;;;5077468;28;20724;-81
2021/04/16 05:26:54;;;;;;;5.90;3.78;;;7.50;71.10;;;;;;5093956;28;20550;-79
2021/04/16 05:29:22;;;;;;;5.65;3.70;;;7.60;71.20;;;;;;5094398;28;20209;-82
2021/04/16 05:31:50;;;;;;;5.25;4.43;;;7.70;71.30;;;;;;5094248;28;20217;-80
2021/04/16 05:34:19;;;;;;;4.10;3.00;;;7.70;71.40;;;;;;5075621;28;20191;-80
2021/04/16 05:36:49;;;;;;;5.60;4.03;;;7.70;71.50;;;;;;5093789;28;20288;-81
2021/04/16 05:39:16;;;;;;;5.28;4.38;;;7.70;71.30;;;;;;5094376;28;20160;-81
2021/04/16 05:41:46;;;;;;;4.80;3.97;;;7.70;71.40;;;;;;5092777;28;20699;-80
2021/04/16 05:44:13;;;;;;;4.60;4.03;;;7.80;71.70;;;;;;5093663;28;20192;-80
2021/04/16 05:46:41;;;;;;;5.65;3.63;;;7.80;71.90;;;;;;5093455;28;20658;-80
2021/04/16 05:49:07;;;;;;;4.80;4.30;;;7.80;72.30;;;;;;5093659;28;20175;-79
2021/04/16 05:51:34;;;;;;;4.28;3.40;;;7.80;72.50;;;;;;5087736;28;20246;-80
2021/04/16 05:54:00;;;;;;;5.28;3.50;;;7.90;72.90;;;;;;5081152;28;20661;-80
2021/04/16 05:56:26;;;;;;;4.60;3.58;;;7.90;73.00;;;;;;5084335;28;20202;-81
2021/04/16 05:58:54;;;;;;;3.92;3.63;;;8.00;73.40;;;;;;5084932;28;20250;-80
2021/04/16 06:01:20;;;;;;;4.23;3.43;;;8.10;73.90;;;;;;5083726;28;20248;-79
2021/04/16 06:03:47;;;;;;;6.40;4.20;;;8.10;73.70;;;;;;5085683;28;20196;-79
2021/04/16 06:06:13;;;;;;;5.70;3.50;;;8.20;73.90;;;;;;5081618;28;20179;-80
2021/04/16 06:08:39;;;;;;;6.18;3.65;;;8.30;74.00;;;;;;5090358;28;20163;-80
2021/04/16 06:11:06;;;;;;;3.92;3.15;;;8.40;74.10;;;;;;5072596;28;20217;-80
2021/04/16 06:13:37;;;;;;;5.53;3.63;;;8.40;74.10;;;;;;5093760;28;20237;-80
2021/04/16 06:16:03;;;;;;;6.00;4.53;;;8.50;74.30;;;;;;5105047;28;20246;-78
2021/04/16 06:18:29;;;;;;;6.18;4.53;;;8.60;74.50;;;;;;5083291;28;20271;-80
2021/04/16 06:20:58;;;;;;;4.93;3.55;;;8.60;74.60;;;;;;5086741;28;20628;-79
2021/04/16 06:23:24;;;;;;;4.83;3.50;;;8.70;74.80;;;;;;5073523;28;20184;-81
2021/04/16 06:25:50;;;;;;;5.57;3.33;;;8.80;75.00;;;;;;5086166;28;20570;-79
2021/04/16 06:28:16;;;;;;;4.40;3.30;;;8.90;75.00;;;;;;5079868;28;20656;-79
2021/04/16 06:30:44;;;;;;;3.22;2.95;;;9.00;75.10;;;;;;5064804;28;20589;-80
2021/04/16 06:33:13;;;;;;;3.60;3.30;;;9.10;75.10;;;;;;5077338;28;20184;-80
2021/04/16 06:35:41;;;;;;;4.57;3.65;;;9.20;75.20;;;;;;5082928;28;20241;-79
2021/04/16 06:38:08;;;;;;;4.43;3.50;;;9.30;76.00;;;;;;5081691;28;20177;-79
2021/04/16 06:40:33;;;;;;;4.45;2.95;;;9.30;75.10;;;;;;5083033;28;20668;-78
2021/04/16 06:42:59;;;;;;;3.13;2.83;;;9.40;75.20;;;;;;5077594;28;20238;-79
2021/04/16 06:45:28;;;;;;;5.43;3.95;;;9.50;75.30;;;;;;5055369;28;20183;-79
2021/04/16 06:47:54;;;;;;;5.93;4.35;;;9.60;75.40;;;;;;5073412;28;20168;-79
2021/04/16 06:50:28;;;;;;;6.63;4.25;;;9.70;75.40;;;;;;5074706;28;20172;-79
2021/04/16 06:53:17;;;;;;;5.03;3.53;;;9.70;75.60;;;;;;5073613;28;20195;-79
2021/04/16 06:56:01;;;;;;;5.63;2.80;;;9.90;75.80;;;;;;5073560;28;20303;-81
2021/04/16 06:58:54;;;;;;;3.50;3.20;;;10.00;74.40;;;;;;5072879;28;20168;-80
2021/04/16 07:01:34;;;;;;;4.28;3.00;;;10.20;74.20;;;;;;5073288;28;20173;-80
2021/04/16 07:04:15;;;;;;;4.85;2.78;;;10.50;74.60;;;;;;5072160;28;20226;-81
2021/04/16 07:06:44;;;;;;;3.55;3.25;;;10.70;74.40;;;;;;5056586;28;20168;-82
2021/04/16 07:09:25;;;;;;;4.57;3.17;;;11.00;74.60;;;;;;5074576;28;20172;-82
2021/04/16 07:12:16;;;;;;;4.63;3.03;;;11.20;73.70;;;;;;5073140;28;20171;-81
2021/04/16 07:14:46;;;;;;;3.70;2.83;;;11.50;73.90;;;;;;5075534;28;20167;-79
2021/04/16 07:17:18;;;;;;;7.72;3.55;;;11.70;73.60;;;;;;5093209;28;20164;-81
2021/04/16 07:19:44;;;;;;;5.22;2.70;;;11.90;73.30;;;;;;5092768;28;20172;-80
2021/04/16 07:24:49;;;;;;;4.50;2.60;;;12.10;72.00;;;;;;5014305;28;20208;-81
2021/04/16 07:27:41;;;;;;;3.03;2.67;;;12.20;71.40;;;;;;4999629;28;20215;-81
2021/04/16 07:30:26;;;;;;;2.63;2.40;;;12.20;70.10;;;;;;5015242;28;20213;-80
2021/04/16 07:32:58;;;;;;;3.35;2.38;;;12.30;70.40;;;;;;4998443;28;20209;-80
2021/04/16 07:35:31;;;;;;;3.35;2.20;;;12.30;70.00;;;;;;5015101;28;20216;-80
2021/04/16 07:38:13;;;;;;;2.80;2.60;;;12.30;69.80;;;;;;4998767;28;20178;-79
2021/04/16 07:40:46;;;;;;;2.63;2.05;;;12.30;69.30;;;;;;4999516;28;20296;-80
2021/04/16 07:43:45;;;;;;;3.25;2.38;;;12.30;68.90;;;;;;5015164;28;20213;-81
2021/04/16 07:46:32;;;;;;;3.75;2.03;;;12.40;68.50;;;;;;5014236;28;20169;-80
2021/04/16 07:49:10;;;;;;;3.88;1.80;;;12.40;68.50;;;;;;4998432;28;20174;-80
2021/04/16 07:51:36;;;;;;;2.67;1.80;;;12.50;68.90;;;;;;5008429;28;20606;-80
2021/04/16 07:54:14;;;;;;;2.70;1.60;;;12.60;69.30;;;;;;5014773;28;20584;-81
2021/04/16 07:56:41;;;;;;;3.72;1.75;;;12.70;68.90;;;;;;4997684;28;20604;-81
2021/04/16 07:59:11;;;;;;;4.97;3.15;;;12.90;69.60;;;;;;5032538;28;20182;-81
2021/04/16 08:01:51;;;;;;;5.80;4.15;;;13.00;69.70;;;;;;4998367;28;20185;-81
2021/04/16 08:04:23;;;;;;;5.82;4.75;;;13.20;69.30;;;;;;5032531;28;20856;-82
2021/04/16 08:07:18;;;;;;;4.35;3.78;;;13.30;67.90;;;;;;5033123;28;20641;-81
2021/04/16 08:09:44;;;;;;;3.60;3.05;;;13.30;67.50;;;;;;5009630;28;20177;-80
2021/04/16 08:12:16;;;;;;;3.60;3.22;;;13.30;67.90;;;;;;4997317;28;20185;-81
2021/04/16 08:14:44;;;;;;;5.70;3.67;;;13.40;67.80;;;;;;5013663;28;20882;-80
2021/04/16 08:17:27;;;;;;;4.72;2.97;;;13.40;67.60;;;;;;5013879;28;20538;-80
2021/04/16 08:20:25;;;;;;;3.85;3.30;;;13.40;67.10;;;;;;5016350;28;20531;-80
2021/04/16 08:22:54;;;;;;;3.00;2.40;;;13.40;67.20;;;;;;4997110;28;20198;-82
2021/04/16 08:25:36;;;;;;;4.18;2.80;;;13.40;66.80;;;;;;5017210;28;20189;-81
2021/04/16 08:28:14;;;;;;;4.97;2.65;;;13.40;66.30;;;;;;5016725;28;20681;-81
2021/04/16 08:30:43;;;;;;;3.60;3.30;;;13.40;66.40;;;;;;5017978;28;20566;-81
2021/04/16 08:33:40;;;;;;;2.92;2.63;;;13.40;66.40;;;;;;5017337;28;20723;-80
2021/04/16 08:36:13;;;;;;;6.15;3.42;;;13.40;66.10;;;;;;5017312;28;20205;-80
2021/04/16 08:38:56;;;;;;;3.00;2.70;;;13.40;66.20;;;;;;5034859;28;20193;-81
2021/04/16 08:41:39;;;;;;;4.72;2.90;;;13.40;66.10;;;;;;5034864;28;20169;-79
2021/04/16 08:44:09;;;;;;;3.47;2.70;;;13.40;65.60;;;;;;5016951;28;20205;-80
2021/04/16 08:46:41;;;;;;;3.25;2.38;;;13.40;65.90;;;;;;5034668;28;20533;-80
2021/04/16 08:49:26;;;;;;;3.65;2.17;;;13.40;65.60;;;;;;5017312;28;20260;-80
2021/04/16 08:52:01;;;;;;;3.47;2.20;;;13.40;65.50;;;;;;4999165;28;20628;-80
2021/04/16 08:54:35;;;;;;;5.87;2.07;;;13.40;65.30;;;;;;5020047;28;20189;-79
2021/04/16 08:57:05;;;;;;;3.17;2.08;;;13.40;65.00;;;;;;4999559;28;20592;-80
2021/04/16 08:59:52;;;;;;;3.33;2.08;;;13.40;65.10;;;;;;5033820;28;20169;-81
2021/04/16 09:02:29;;;;;;;5.28;2.55;;;13.50;64.70;;;;;;5016254;28;20178;-80
2021/04/16 09:05:14;;;;;;;2.42;1.95;;;13.50;64.60;;;;;;5016678;28;20177;-81
2021/04/16 09:07:45;;;;;;;2.85;2.42;;;13.50;64.10;;;;;;5016202;28;20212;-80
2021/04/16 09:10:14;;;;;;;4.60;2.00;;;13.60;64.90;;;;;;5044153;22;20170;-76
2021/04/16 09:12:40;;;;;;;3.90;2.67;;;13.60;64.20;;;;;;5097298;28;20178;-77
2021/04/16 09:15:34;;;;;;;2.30;2.03;;;13.70;63.90;;;;;;5104427;28;20570;-77
2021/04/16 09:18:00;;;;;;;2.50;2.30;;;13.70;63.20;;;;;;5093979;28;20809;-77
2021/04/16 09:20:35;;;;;;;3.10;2.10;;;13.70;63.90;;;;;;5062921;28;20188;-77
2021/04/16 09:23:17;;;;;;;3.03;2.30;;;13.80;63.90;;;;;;5049965;28;20176;-78
2021/04/16 09:25:50;;;;;;;2.75;1.58;;;14.00;64.00;;;;;;5085261;28;20215;-78
2021/04/16 09:28:22;;;;;;;2.10;1.90;;;14.20;64.50;;;;;;5061390;28;20229;-77
2021/04/16 09:30:56;;;;;;;3.55;2.47;;;14.40;63.80;;;;;;5078720;28;20552;-76
2021/04/16 09:33:25;;;;;;;2.28;1.90;;;14.50;63.50;;;;;;5074205;28;20199;-76
2021/04/16 09:35:58;;;;;;;3.08;2.30;;;14.70;63.90;;;;;;5056502;28;20238;-76
2021/04/16 09:38:24;;;;;;;5.07;2.20;;;14.90;63.40;;;;;;5055665;28;20639;-77
2021/04/16 09:41:08;;;;;;;2.63;1.93;;;15.10;63.60;;;;;;5041406;28;20199;-77
2021/04/16 09:43:36;;;;;;;4.88;1.40;;;15.20;62.70;;;;;;5062972;28;20553;-78
2021/04/16 09:46:31;;;;;;;2.10;1.70;;;15.30;63.10;;;;;;5063346;28;20180;-78
2021/04/16 09:49:02;;;;;;;3.10;1.77;;;15.60;62.50;;;;;;5081667;28;20996;-77
2021/04/16 09:51:33;;;;;;;3.47;1.50;;;15.70;62.50;;;;;;5064157;28;20626;-77
2021/04/16 09:54:07;;;;;;;2.43;1.17;;;15.90;61.90;;;;;;5064651;28;20684;-77
2021/04/16 09:56:37;;;;;;;1.60;1.00;;;16.00;61.40;;;;;;5083540;28;20623;-76
2021/04/16 09:59:28;;;;;;;2.47;1.67;;;16.10;60.70;;;;;;5059347;28;20610;-76
2021/04/16 10:02:12;;;;;;;2.10;1.30;;;16.20;56.00;;;;;;5062382;28;20639;-78
2021/04/16 10:05:15;;;;;;;2.30;1.70;;;16.30;58.80;;;;;;5084533;28;20570;-77
2021/04/16 10:07:52;;;;;;;2.33;1.53;;;16.50;58.80;;;;;;5065623;28;20896;-77
2021/04/16 10:10:39;;;;;;;2.70;1.43;;;16.70;59.00;;;;;;5081132;28;20595;-77
2021/04/16 10:13:22;;;;;;;3.93;1.40;;;16.80;58.50;;;;;;5066775;28;20609;-77
2021/04/16 10:15:50;;;;;;;5.70;2.30;;;16.80;57.50;;;;;;5065966;28;20621;-77
2021/04/16 10:18:22;;;;;;;1.67;1.10;;;16.80;57.10;;;;;;5099604;28;20566;-77
2021/04/16 10:20:59;;;;;;;2.07;1.40;;;16.90;57.30;;;;;;5104539;28;21153;-78
2021/04/16 10:23:33;;;;;;;1.70;1.27;;;16.90;57.10;;;;;;5080658;28;20611;-76
2021/04/16 10:46:54;;;;;;;3.73;1.77;;;18.40;55.00;;;;;;5077110;28;21154;-77
2021/04/16 11:03:31;;;;;;;1.97;1.10;;;18.90;53.50;;;;;;5066514;28;20581;-76
2021/04/16 12:38:49;;;;;;;1.80;1.00;;;17.70;47.70;;;;;;5085615;28;20563;-78
2021/04/16 12:41:15;;;;;;;1.23;0.80;;;17.90;47.50;;;;;;5069061;28;20685;-78
2021/04/16 12:43:41;;;;;;;3.03;0.90;;;17.90;46.90;;;;;;5069283;28;20570;-78
2021/04/16 12:46:08;;;;;;;2.10;1.20;;;17.90;47.00;;;;;;5068494;28;20693;-78
2021/04/16 12:48:35;;;;;;;1.50;0.87;;;17.90;46.70;;;;;;5068216;28;20571;-78
2021/04/16 12:51:00;;;;;;;5.40;1.07;;;17.90;46.70;;;;;;5068819;28;20602;-77
2021/04/16 12:53:26;;;;;;;1.90;1.10;;;17.90;47.00;;;;;;5069858;28;20601;-78
2021/04/16 12:55:52;;;;;;;1.50;0.90;;;17.80;45.90;;;;;;5090169;28;20614;-79
2021/04/16 12:58:27;;;;;;;1.30;1.00;;;17.80;46.20;;;;;;5041308;28;20165;-78
2021/04/16 13:00:55;;;;;;;1.80;1.20;;;17.80;46.20;;;;;;5062044;28;20674;-77
2021/04/16 13:03:26;;;;;;;1.70;1.00;;;17.90;45.70;;;;;;5062567;28;20617;-78
2021/04/16 13:05:52;;;;;;;1.47;0.90;;;17.80;43.80;;;;;;5047648;28;21160;-78
2021/04/16 13:08:21;;;;;;;1.93;0.80;;;17.90;45.50;;;;;;5079773;28;20582;-79
2021/04/16 13:10:47;;;;;;;1.37;0.70;;;17.90;45.30;;;;;;5086680;28;20641;-79
2021/04/16 13:13:12;;;;;;;1.77;1.10;;;17.90;45.00;;;;;;5055642;28;20600;-79
2021/04/16 13:15:39;;;;;;;1.57;1.10;;;17.90;44.90;;;;;;5052198;28;20677;-78
2021/04/16 13:18:30;;;;;;;1.47;0.97;;;17.80;44.80;;;;;;5086736;28;20589;-79
2021/04/16 13:21:04;;;;;;;1.60;1.10;;;17.70;44.30;;;;;;5065973;28;20609;-78
2021/04/16 13:23:33;;;;;;;2.37;0.80;;;17.60;44.40;;;;;;5081998;28;20580;-78
2021/04/16 13:26:04;;;;;;;3.00;1.10;;;17.50;44.30;;;;;;5082969;28;20624;-78
2021/04/16 13:28:31;;;;;;;1.40;0.73;;;17.50;44.60;;;;;;5062493;28;20573;-78
2021/04/16 13:30:57;;;;;;;1.40;0.80;;;17.50;44.80;;;;;;5106291;28;20613;-79
2021/04/16 13:33:23;;;;;;;2.70;0.90;;;17.50;45.60;;;;;;5061739;28;20609;-78
2021/04/16 13:35:55;;;;;;;1.10;0.70;;;17.50;44.30;;;;;;5061836;28;20680;-79
2021/04/16 13:38:27;;;;;;;1.17;0.63;;;17.60;44.80;;;;;;5060518;28;20981;-78
2021/04/16 13:40:55;;;;;;;1.30;0.80;;;17.60;44.10;;;;;;5047673;28;20629;-79
2021/04/16 13:43:22;;;;;;;1.80;0.70;;;17.70;44.00;;;;;;5087754;28;20614;-80
2021/04/16 13:45:49;;;;;;;1.40;0.80;;;17.70;44.10;;;;;;5082255;28;20577;-78
2021/04/16 13:48:16;;;;;;;1.60;1.10;;;17.70;44.20;;;;;;5086257;28;20576;-78
2021/04/16 13:50:43;;;;;;;3.77;0.90;;;17.70;44.20;;;;;;5068331;28;20628;-78
2021/04/16 13:53:13;;;;;;;2.07;0.97;;;17.70;44.20;;;;;;5080372;28;21006;-78
2021/04/16 13:55:40;;;;;;;2.07;0.77;;;17.70;44.10;;;;;;5063847;28;20641;-78
2021/04/16 13:58:05;;;;;;;1.73;0.87;;;17.70;44.30;;;;;;5072132;28;20569;-79
2021/04/16 14:00:34;;;;;;;1.70;0.80;;;17.70;43.90;;;;;;5086560;28;20620;-78
2021/04/16 14:03:31;;;;;;;1.53;0.73;;;17.70;43.60;;;;;;5071091;28;20248;-78
2021/04/16 14:06:01;;;;;;;1.40;0.90;;;17.70;43.90;;;;;;5067857;28;20588;-78
2021/04/16 14:08:33;;;;;;;3.77;1.10;;;17.80;44.20;;;;;;5103993;28;20573;-78
2021/04/16 14:11:00;;;;;;;1.77;0.90;;;17.90;44.30;;;;;;5103803;28;20613;-78
2021/04/16 14:13:28;;;;;;;5.40;0.97;;;18.00;44.30;;;;;;5073516;28;21110;-78
2021/04/16 14:15:56;;;;;;;1.70;0.90;;;18.10;44.10;;;;;;5073089;28;20637;-78
2021/04/16 14:18:35;;;;;;;1.83;0.77;;;18.10;43.80;;;;;;5071954;28;20597;-79
2021/04/16 14:21:04;;;;;;;2.07;0.90;;;18.00;43.60;;;;;;5063307;28;20668;-77
2021/04/16 14:23:30;;;;;;;2.23;0.90;;;18.00;43.70;;;;;;5081191;28;20589;-79
2021/04/16 14:25:56;;;;;;;1.33;0.87;;;18.10;43.70;;;;;;5061874;28;20581;-79
2021/04/16 14:28:23;;;;;;;1.43;0.87;;;18.00;43.10;;;;;;5077054;28;21159;-78
2021/04/16 14:30:50;;;;;;;1.63;0.80;;;17.90;43.00;;;;;;5095227;28;20614;-78
2021/04/16 14:33:31;;;;;;;2.33;0.80;;;17.90;43.30;;;;;;5079113;28;20596;-78
2021/04/16 14:35:57;;;;;;;2.10;0.80;;;17.90;43.40;;;;;;5078598;28;20648;-78
2021/04/16 14:38:24;;;;;;;3.10;1.00;;;17.90;43.10;;;;;;5062030;28;20577;-78
2021/04/16 14:40:50;;;;;;;1.50;0.97;;;17.80;43.10;;;;;;5083598;28;20637;-78
2021/04/16 14:43:20;;;;;;;2.20;0.87;;;17.80;42.90;;;;;;5100522;28;20581;-78
2021/04/16 14:45:49;;;;;;;1.50;0.73;;;17.80;43.10;;;;;;5067738;28;20684;-78
2021/04/16 14:48:17;;;;;;;5.03;1.07;;;17.70;42.80;;;;;;5061851;28;20575;-78
2021/04/16 14:50:43;;;;;;;7.53;1.10;;;17.60;41.90;;;;;;5066559;28;20603;-78
2021/04/16 14:53:23;;;;;;;2.03;1.40;;;17.50;42.20;;;;;;5048278;28;20578;-78
2021/04/16 14:55:50;;;;;;;1.70;1.03;;;17.40;42.10;;;;;;5067275;28;20663;-79
2021/04/16 14:58:28;;;;;;;1.40;0.90;;;17.30;42.20;;;;;;5093933;28;20558;-78
2021/04/16 15:00:54;;;;;;;3.30;2.10;;;17.20;42.20;;;;;;5094794;28;20601;-78
2021/04/16 15:03:20;;;;;;;2.43;1.00;;;17.10;42.30;;;;;;5094063;28;20585;-78
2021/04/16 15:05:46;;;;;;;2.40;0.87;;;17.00;42.50;;;;;;5091712;28;20601;-79
2021/04/16 15:08:22;;;;;;;1.67;0.87;;;17.00;42.60;;;;;;5092822;28;20570;-79
2021/04/16 15:10:53;;;;;;;2.30;1.03;;;17.00;42.40;;;;;;5100616;28;20629;-78
2021/04/16 15:13:27;;;;;;;1.70;1.10;;;16.90;42.80;;;;;;5080946;28;21011;-78
2021/04/16 15:16:02;;;;;;;4.70;1.40;;;16.90;42.90;;;;;;5114358;28;20637;-78
2021/04/16 15:18:33;;;;;;;1.30;0.70;;;17.00;43.00;;;;;;5092690;28;20581;-79
2021/04/16 15:21:08;;;;;;;2.27;1.10;;;17.00;43.10;;;;;;5083515;28;21051;-79
2021/04/16 15:23:35;;;;;;;3.20;2.20;;;17.00;42.80;;;;;;5082944;28;21097;-80
2021/04/16 15:26:06;;;;;;;2.27;1.70;;;16.90;43.00;;;;;;5044344;28;20602;-79
2021/04/16 15:28:43;;;;;;;2.67;1.43;;;16.90;43.20;;;;;;5051652;28;20558;-79
2021/04/16 15:31:12;;;;;;;2.47;1.00;;;16.80;43.10;;;;;;5040083;28;20602;-78